Terminal Aerodrome Forecast
Issued by NWS Albany, NY

Home | Current Version | Previous Version | Text Only | Print | Product List | Glossary On
Versions: 1 2 3 4 5 6 7 8 9 10 11 12 13 14 15 16 17 18 19 20 21 22 23 24 25 26 27 28 29
485
FTUS41 KALY 251727
TAFPOU
TAF
KPOU 251727Z 2518/2618 36004KT 4SM BR OVC010
     FM260000 VRB03KT 1 1/2SM BR BKN003
     FM261300 29003KT 4SM BR SCT015
     FM261500 28006KT P6SM SCT040=

USA.gov is the U.S. government's official web portal to all federal, state and local government web resources and services.